sensor_id;sensor_type;location;lat;lon;timestamp;pressure;altitude;pressure_sealevel;temperature;humidity
54172;BME280;40076;52.354;4.970;2022-12-29T00:01:00;99859.44;;;11.02;100.00
54172;BME280;40076;52.354;4.970;2022-12-29T00:03:26;99852.56;;;11.05;100.00
54172;BME280;40076;52.354;4.970;2022-12-29T00:06:04;99843.31;;;11.06;100.00
54172;BME280;40076;52.354;4.970;2022-12-29T00:08:30;99833.72;;;11.08;100.00
54172;BME280;40076;52.354;4.970;2022-12-29T00:11:15;99829.81;;;11.06;100.00
54172;BME280;40076;52.354;4.970;2022-12-29T00:13:41;99822.56;;;11.10;100.00
54172;BME280;40076;52.354;4.970;2022-12-29T00:16:26;99828.75;;;11.10;100.00
54172;BME280;40076;52.354;4.970;2022-12-29T00:18:52;99825.72;;;11.12;100.00
54172;BME280;40076;52.354;4.970;2022-12-29T00:21:20;99814.19;;;11.15;100.00
54172;BME280;40076;52.354;4.970;2022-12-29T00:24:08;99814.56;;;11.13;100.00
54172;BME280;40076;52.354;4.970;2022-12-29T00:29:46;99802.56;;;11.14;100.00
54172;BME280;40076;52.354;4.970;2022-12-29T00:32:30;99797.97;;;11.15;100.00
54172;BME280;40076;52.354;4.970;2022-12-29T00:35:21;99788.28;;;11.14;100.00
54172;BME280;40076;52.354;4.970;2022-12-29T00:37:47;99794.13;;;11.16;100.00
54172;BME280;40076;52.354;4.970;2022-12-29T00:40:31;99778.63;;;11.13;100.00
54172;BME280;40076;52.354;4.970;2022-12-29T00:43:15;99776.69;;;11.13;100.00
54172;BME280;40076;52.354;4.970;2022-12-29T00:46:04;99764.72;;;11.14;100.00
54172;BME280;40076;52.354;4.970;2022-12-29T00:48:32;99752.44;;;11.17;100.00
54172;BME280;40076;52.354;4.970;2022-12-29T00:51:16;99753.66;;;11.19;100.00
54172;BME280;40076;52.354;4.970;2022-12-29T00:53:44;99747.13;;;11.20;100.00
54172;BME280;40076;52.354;4.970;2022-12-29T00:56:10;99743.28;;;11.21;100.00
54172;BME280;40076;52.354;4.970;2022-12-29T00:58:35;99739.09;;;11.24;100.00
54172;BME280;40076;52.354;4.970;2022-12-29T01:01:06;99731.44;;;11.26;100.00
54172;BME280;40076;52.354;4.970;2022-12-29T01:03:33;99734.13;;;11.26;100.00
54172;BME280;40076;52.354;4.970;2022-12-29T01:06:05;99734.19;;;11.30;100.00
54172;BME280;40076;52.354;4.970;2022-12-29T01:08:31;99734.97;;;11.30;100.00
54172;BME280;40076;52.354;4.970;2022-12-29T01:11:02;99727.31;;;11.32;100.00
54172;BME280;40076;52.354;4.970;2022-12-29T01:13:28;99725.41;;;11.33;100.00
54172;BME280;40076;52.354;4.970;2022-12-29T01:15:54;99722.34;;;11.34;100.00
54172;BME280;40076;52.354;4.970;2022-12-29T01:18:24;99713.00;;;11.32;100.00
54172;BME280;40076;52.354;4.970;2022-12-29T01:21:03;99702.63;;;11.34;100.00
54172;BME280;40076;52.354;4.970;2022-12-29T01:23:30;99717.72;;;11.35;100.00
54172;BME280;40076;52.354;4.970;2022-12-29T01:25:56;99708.03;;;11.34;100.00
54172;BME280;40076;52.354;4.970;2022-12-29T01:28:22;99719.66;;;11.34;100.00
54172;BME280;40076;52.354;4.970;2022-12-29T01:30:47;99734.38;;;11.37;100.00
54172;BME280;40076;52.354;4.970;2022-12-29T01:33:13;99727.41;;;11.36;100.00
54172;BME280;40076;52.354;4.970;2022-12-29T01:35:39;99716.59;;;11.36;100.00
54172;BME280;40076;52.354;4.970;2022-12-29T01:38:05;99722.00;;;11.36;100.00
54172;BME280;40076;52.354;4.970;2022-12-29T01:40:30;99720.84;;;11.37;100.00
54172;BME280;40076;52.354;4.970;2022-12-29T01:42:56;99702.69;;;11.37;100.00
54172;BME280;40076;52.354;4.970;2022-12-29T01:45:24;99721.22;;;11.35;100.00
54172;BME280;40076;52.354;4.970;2022-12-29T01:48:02;99723.47;;;11.33;100.00
54172;BME280;40076;52.354;4.970;2022-12-29T01:50:39;99724.72;;;11.36;100.00
54172;BME280;40076;52.354;4.970;2022-12-29T01:53:11;99735.09;;;11.34;100.00
54172;BME280;40076;52.354;4.970;2022-12-29T01:55:51;99730.03;;;11.32;100.00
54172;BME280;40076;52.354;4.970;2022-12-29T01:58:19;99744.00;;;11.34;100.00
54172;BME280;40076;52.354;4.970;2022-12-29T02:00:54;99737.78;;;11.34;100.00
54172;BME280;40076;52.354;4.970;2022-12-29T02:03:22;99735.16;;;11.37;100.00
54172;BME280;40076;52.354;4.970;2022-12-29T02:05:57;99742.06;;;11.35;100.00
54172;BME280;40076;52.354;4.970;2022-12-29T02:08:29;99738.66;;;11.38;100.00
54172;BME280;40076;52.354;4.970;2022-12-29T02:10:59;99736.38;;;11.40;100.00
54172;BME280;40076;52.354;4.970;2022-12-29T02:13:29;99737.84;;;11.37;100.00
54172;BME280;40076;52.354;4.970;2022-12-29T02:16:19;99734.38;;;11.37;100.00
54172;BME280;40076;52.354;4.970;2022-12-29T02:25:10;99742.41;;;11.33;100.00
54172;BME280;40076;52.354;4.970;2022-12-29T02:45:53;99727.75;;;11.34;100.00
54172;BME280;40076;52.354;4.970;2022-12-29T02:48:43;99728.88;;;11.33;100.00
54172;BME280;40076;52.354;4.970;2022-12-29T02:51:18;99716.50;;;11.32;100.00
54172;BME280;40076;52.354;4.970;2022-12-29T02:53:48;99724.53;;;11.29;100.00
54172;BME280;40076;52.354;4.970;2022-12-29T02:56:32;99709.00;;;11.26;100.00
54172;BME280;40076;52.354;4.970;2022-12-29T02:59:01;99720.16;;;11.24;100.00
54172;BME280;40076;52.354;4.970;2022-12-29T03:02:13;99717.81;;;11.22;100.00
54172;BME280;40076;52.354;4.970;2022-12-29T03:08:29;99735.34;;;11.13;100.00
54172;BME280;40076;52.354;4.970;2022-12-29T03:11:15;99748.31;;;11.07;100.00
54172;BME280;40076;52.354;4.970;2022-12-29T03:14:17;99748.25;;;11.04;100.00
54172;BME280;40076;52.354;4.970;2022-12-29T03:17:28;99740.38;;;10.99;100.00
54172;BME280;40076;52.354;4.970;2022-12-29T03:20:01;99754.28;;;10.97;100.00
54172;BME280;40076;52.354;4.970;2022-12-29T03:22:38;99755.72;;;10.95;100.00
54172;BME280;40076;52.354;4.970;2022-12-29T03:25:08;99755.72;;;10.95;100.00
54172;BME280;40076;52.354;4.970;2022-12-29T03:27:41;99757.66;;;10.94;100.00
54172;BME280;40076;52.354;4.970;2022-12-29T03:30:12;99763.41;;;10.93;100.00
54172;BME280;40076;52.354;4.970;2022-12-29T03:32:45;99757.13;;;10.89;100.00
54172;BME280;40076;52.354;4.970;2022-12-29T03:35:20;99741.69;;;10.89;100.00
54172;BME280;40076;52.354;4.970;2022-12-29T03:37:58;99751.38;;;10.90;100.00
54172;BME280;40076;52.354;4.970;2022-12-29T03:40:31;99745.97;;;10.90;100.00
54172;BME280;40076;52.354;4.970;2022-12-29T03:43:06;99736.63;;;10.88;100.00
54172;BME280;40076;52.354;4.970;2022-12-29T03:45:34;99738.66;;;10.91;100.00
54172;BME280;40076;52.354;4.970;2022-12-29T03:48:06;99721.28;;;10.92;100.00
54172;BME280;40076;52.354;4.970;2022-12-29T03:50:36;99717.78;;;10.91;100.00
54172;BME280;40076;52.354;4.970;2022-12-29T03:53:04;99733.25;;;10.91;100.00
54172;BME280;40076;52.354;4.970;2022-12-29T03:55:33;99724.00;;;10.92;100.00
54172;BME280;40076;52.354;4.970;2022-12-29T03:58:00;99724.44;;;10.94;100.00
54172;BME280;40076;52.354;4.970;2022-12-29T04:00:26;99727.13;;;10.94;100.00
54172;BME280;40076;52.354;4.970;2022-12-29T04:02:55;99727.13;;;10.94;100.00
54172;BME280;40076;52.354;4.970;2022-12-29T04:08:04;99736.03;;;10.94;100.00
54172;BME280;40076;52.354;4.970;2022-12-29T04:10:30;99748.75;;;10.94;100.00
54172;BME280;40076;52.354;4.970;2022-12-29T04:13:11;99745.25;;;10.93;100.00
54172;BME280;40076;52.354;4.970;2022-12-29T04:15:37;99736.47;;;10.96;100.00
54172;BME280;40076;52.354;4.970;2022-12-29T04:18:02;99733.06;;;10.99;100.00
54172;BME280;40076;52.354;4.970;2022-12-29T04:20:34;99739.19;;;10.96;100.00
54172;BME280;40076;52.354;4.970;2022-12-29T04:23:18;99741.97;;;11.00;100.00
54172;BME280;40076;52.354;4.970;2022-12-29T04:25:47;99745.03;;;10.98;100.00
54172;BME280;40076;52.354;4.970;2022-12-29T04:28:13;99753.91;;;10.99;100.00
54172;BME280;40076;52.354;4.970;2022-12-29T04:30:45;99747.63;;;10.95;100.00
54172;BME280;40076;52.354;4.970;2022-12-29T04:33:20;99737.59;;;10.95;100.00
54172;BME280;40076;52.354;4.970;2022-12-29T04:35:46;99744.94;;;10.95;100.00
54172;BME280;40076;52.354;4.970;2022-12-29T04:38:13;99747.63;;;10.95;100.00
54172;BME280;40076;52.354;4.970;2022-12-29T04:40:40;99751.81;;;10.92;100.00
54172;BME280;40076;52.354;4.970;2022-12-29T04:43:06;99734.78;;;10.92;100.00
54172;BME280;40076;52.354;4.970;2022-12-29T04:45:35;99739.34;;;10.88;100.00
54172;BME280;40076;52.354;4.970;2022-12-29T04:48:03;99743.63;;;10.89;100.00
54172;BME280;40076;52.354;4.970;2022-12-29T04:50:32;99743.97;;;10.87;100.00
54172;BME280;40076;52.354;4.970;2022-12-29T04:52:58;99745.09;;;10.86;100.00
54172;BME280;40076;52.354;4.970;2022-12-29T04:55:23;99746.22;;;10.85;100.00
54172;BME280;40076;52.354;4.970;2022-12-29T04:57:52;99756.22;;;10.84;100.00
54172;BME280;40076;52.354;4.970;2022-12-29T05:00:17;99750.41;;;10.82;100.00
54172;BME280;40076;52.354;4.970;2022-12-29T05:02:43;99754.59;;;10.80;100.00
54172;BME280;40076;52.354;4.970;2022-12-29T05:05:09;99743.78;;;10.80;100.00
54172;BME280;40076;52.354;4.970;2022-12-29T05:07:37;99750.31;;;10.79;100.00
54172;BME280;40076;52.354;4.970;2022-12-29T05:10:06;99751.34;;;10.74;100.00
54172;BME280;40076;52.354;4.970;2022-12-29T05:12:34;99751.69;;;10.73;100.00
54172;BME280;40076;52.354;4.970;2022-12-29T05:15:00;99747.06;;;10.73;100.00
54172;BME280;40076;52.354;4.970;2022-12-29T05:17:28;99748.53;;;10.71;100.00
54172;BME280;40076;52.354;4.970;2022-12-29T05:19:56;99752.72;;;10.68;100.00
54172;BME280;40076;52.354;4.970;2022-12-29T05:23:00;99757.69;;;10.66;100.00
54172;BME280;40076;52.354;4.970;2022-12-29T05:25:37;99772.00;;;10.67;100.00
54172;BME280;40076;52.354;4.970;2022-12-29T05:28:06;99773.44;;;10.64;100.00
54172;BME280;40076;52.354;4.970;2022-12-29T05:30:34;99776.50;;;10.63;100.00
54172;BME280;40076;52.354;4.970;2022-12-29T05:33:03;99765.69;;;10.63;100.00
54172;BME280;40076;52.354;4.970;2022-12-29T05:35:37;99779.91;;;10.60;100.00
54172;BME280;40076;52.354;4.970;2022-12-29T05:38:14;99778.75;;;10.61;100.00
54172;BME280;40076;52.354;4.970;2022-12-29T05:40:40;99790.00;;;10.63;100.00
54172;BME280;40076;52.354;4.970;2022-12-29T05:43:06;99776.03;;;10.61;100.00
54172;BME280;40076;52.354;4.970;2022-12-29T05:45:31;99788.44;;;10.62;100.00
54172;BME280;40076;52.354;4.970;2022-12-29T05:48:00;99784.16;;;10.61;100.00
54172;BME280;40076;52.354;4.970;2022-12-29T05:50:40;99794.53;;;10.59;100.00
54172;BME280;40076;52.354;4.970;2022-12-29T05:53:06;99784.94;;;10.61;100.00
54172;BME280;40076;52.354;4.970;2022-12-29T05:55:41;99783.63;;;10.55;100.00
54172;BME280;40076;52.354;4.970;2022-12-29T05:58:10;99779.78;;;10.56;100.00
54172;BME280;40076;52.354;4.970;2022-12-29T06:00:36;99780.91;;;10.55;100.00
54172;BME280;40076;52.354;4.970;2022-12-29T06:03:02;99773.16;;;10.54;100.00
54172;BME280;40076;52.354;4.970;2022-12-29T06:05:30;99780.38;;;10.50;100.00
54172;BME280;40076;52.354;4.970;2022-12-29T06:07:58;99788.47;;;10.50;100.00
54172;BME280;40076;52.354;4.970;2022-12-29T06:10:27;99793.44;;;10.48;100.00
54172;BME280;40076;52.354;4.970;2022-12-29T06:12:55;99782.19;;;10.45;100.00
54172;BME280;40076;52.354;4.970;2022-12-29T06:15:20;99799.53;;;10.44;100.00
54172;BME280;40076;52.354;4.970;2022-12-29T06:17:54;99803.69;;;10.42;100.00
54172;BME280;40076;52.354;4.970;2022-12-29T06:20:19;99815.97;;;10.39;100.00
54172;BME280;40076;52.354;4.970;2022-12-29T06:22:45;99805.94;;;10.40;100.00
54172;BME280;40076;52.354;4.970;2022-12-29T06:25:11;99795.47;;;10.38;100.00
54172;BME280;40076;52.354;4.970;2022-12-29T06:27:40;99801.25;;;10.37;100.00
54172;BME280;40076;52.354;4.970;2022-12-29T06:30:12;99816.28;;;10.38;100.00
54172;BME280;40076;52.354;4.970;2022-12-29T06:32:47;99826.75;;;10.39;100.00
54172;BME280;40076;52.354;4.970;2022-12-29T06:35:20;99841.84;;;10.40;100.00
54172;BME280;40076;52.354;4.970;2022-12-29T06:37:47;99829.91;;;10.41;100.00
54172;BME280;40076;52.354;4.970;2022-12-29T06:40:25;99830.38;;;10.43;100.00
54172;BME280;40076;52.354;4.970;2022-12-29T06:42:51;99826.88;;;10.43;100.00
54172;BME280;40076;52.354;4.970;2022-12-29T06:45:27;99832.28;;;10.43;100.00
54172;BME280;40076;52.354;4.970;2022-12-29T06:47:53;99826.09;;;10.42;100.00
54172;BME280;40076;52.354;4.970;2022-12-29T06:50:22;99842.28;;;10.42;100.00
54172;BME280;40076;52.354;4.970;2022-12-29T06:52:47;99830.72;;;10.42;100.00
54172;BME280;40076;52.354;4.970;2022-12-29T06:55:13;99829.59;;;10.43;100.00
54172;BME280;40076;52.354;4.970;2022-12-29T06:57:41;99837.22;;;10.41;100.00
54172;BME280;40076;52.354;4.970;2022-12-29T07:00:10;99831.50;;;10.42;100.00
54172;BME280;40076;52.354;4.970;2022-12-29T07:02:36;99830.72;;;10.42;100.00
54172;BME280;40076;52.354;4.970;2022-12-29T07:05:05;99832.63;;;10.41;100.00
54172;BME280;40076;52.354;4.970;2022-12-29T07:07:35;99824.41;;;10.38;100.00
54172;BME280;40076;52.354;4.970;2022-12-29T07:10:10;99822.06;;;10.36;100.00
54172;BME280;40076;52.354;4.970;2022-12-29T07:12:45;99813.97;;;10.36;100.00
54172;BME280;40076;52.354;4.970;2022-12-29T07:15:20;99830.94;;;10.37;100.00
54172;BME280;40076;52.354;4.970;2022-12-29T07:17:53;99826.69;;;10.36;100.00
54172;BME280;40076;52.354;4.970;2022-12-29T07:20:19;99832.41;;;10.34;100.00
54172;BME280;40076;52.354;4.970;2022-12-29T07:22:44;99827.81;;;10.35;100.00
54172;BME280;40076;52.354;4.970;2022-12-29T07:25:13;99832.75;;;10.33;100.00
54172;BME280;40076;52.354;4.970;2022-12-29T07:27:44;99832.75;;;10.33;100.00
54172;BME280;40076;52.354;4.970;2022-12-29T07:30:10;99829.72;;;10.34;100.00
54172;BME280;40076;52.354;4.970;2022-12-29T07:32:50;99831.28;;;10.35;100.00
54172;BME280;40076;52.354;4.970;2022-12-29T07:35:16;99837.03;;;10.34;100.00
54172;BME280;40076;52.354;4.970;2022-12-29T07:37:45;99840.84;;;10.33;100.00
54172;BME280;40076;52.354;4.970;2022-12-29T07:40:22;99841.50;;;10.30;100.00
54172;BME280;40076;52.354;4.970;2022-12-29T07:42:55;99835.13;;;10.34;100.00
54172;BME280;40076;52.354;4.970;2022-12-29T07:45:29;99828.13;;;10.33;100.00
54172;BME280;40076;52.354;4.970;2022-12-29T07:47:57;99832.75;;;10.33;100.00
54172;BME280;40076;52.354;4.970;2022-12-29T07:50:39;99835.44;;;10.33;100.00
54172;BME280;40076;52.354;4.970;2022-12-29T07:53:07;99820.81;;;10.34;100.00
54172;BME280;40076;52.354;4.970;2022-12-29T07:55:41;99824.66;;;10.33;100.00
54172;BME280;40076;52.354;4.970;2022-12-29T07:58:16;99836.25;;;10.33;100.00
54172;BME280;40076;52.354;4.970;2022-12-29T08:00:47;99837.34;;;10.32;100.00
54172;BME280;40076;52.354;4.970;2022-12-29T08:06:11;99853.81;;;10.27;100.00
54172;BME280;40076;52.354;4.970;2022-12-29T08:08:46;99850.97;;;10.24;100.00
54172;BME280;40076;52.354;4.970;2022-12-29T08:11:17;99852.47;;;10.21;100.00
54172;BME280;40076;52.354;4.970;2022-12-29T08:13:50;99847.72;;;10.18;100.00
54172;BME280;40076;52.354;4.970;2022-12-29T08:16:18;99854.13;;;10.14;100.00
54172;BME280;40076;52.354;4.970;2022-12-29T08:18:52;99853.69;;;10.12;100.00
54172;BME280;40076;52.354;4.970;2022-12-29T08:21:33;99862.00;;;10.06;100.00
54172;BME280;40076;52.354;4.970;2022-12-29T08:37:59;99854.00;;;9.86;100.00
54172;BME280;40076;52.354;4.970;2022-12-29T08:40:37;99862.81;;;9.83;100.00
54172;BME280;40076;52.354;4.970;2022-12-29T08:46:49;99861.09;;;9.78;100.00
54172;BME280;40076;52.354;4.970;2022-12-29T08:49:35;99861.09;;;9.78;100.00
54172;BME280;40076;52.354;4.970;2022-12-29T08:52:09;99884.59;;;9.78;100.00
54172;BME280;40076;52.354;4.970;2022-12-29T08:55:15;99874.81;;;9.73;100.00
54172;BME280;40076;52.354;4.970;2022-12-29T09:01:58;99869.66;;;9.68;100.00
54172;BME280;40076;52.354;4.970;2022-12-29T09:04:53;99871.56;;;9.67;100.00
54172;BME280;40076;52.354;4.970;2022-12-29T09:10:27;99905.25;;;9.61;100.00
54172;BME280;40076;52.354;4.970;2022-12-29T09:16:33;99906.38;;;9.60;100.00
54172;BME280;40076;52.354;4.970;2022-12-29T09:19:09;99916.38;;;9.60;100.00
54172;BME280;40076;52.354;4.970;2022-12-29T09:21:35;99918.28;;;9.59;100.00
54172;BME280;40076;52.354;4.970;2022-12-29T09:24:08;99934.47;;;9.59;100.00
54172;BME280;40076;52.354;4.970;2022-12-29T09:26:36;99937.16;;;9.59;100.00
54172;BME280;40076;52.354;4.970;2022-12-29T09:29:20;99947.63;;;9.61;100.00
54172;BME280;40076;52.354;4.970;2022-12-29T09:31:46;99948.06;;;9.63;100.00
54172;BME280;40076;52.354;4.970;2022-12-29T09:34:14;99953.47;;;9.63;100.00
54172;BME280;40076;52.354;4.970;2022-12-29T09:36:40;99963.47;;;9.62;100.00
54172;BME280;40076;52.354;4.970;2022-12-29T09:39:12;99962.00;;;9.65;100.00
54172;BME280;40076;52.354;4.970;2022-12-29T09:41:56;99973.13;;;9.63;100.00
54172;BME280;40076;52.354;4.970;2022-12-29T09:44:28;99981.69;;;9.65;100.00
54172;BME280;40076;52.354;4.970;2022-12-29T09:46:58;99967.88;;;9.67;100.00
54172;BME280;40076;52.354;4.970;2022-12-29T09:49:46;99979.00;;;9.65;100.00
54172;BME280;40076;52.354;4.970;2022-12-29T09:52:21;99981.38;;;9.67;100.00
54172;BME280;40076;52.354;4.970;2022-12-29T09:57:47;100002.25;;;9.70;100.00
54172;BME280;40076;52.354;4.970;2022-12-29T10:00:47;100006.06;;;9.69;100.00
54172;BME280;40076;52.354;4.970;2022-12-29T10:03:24;100012.25;;;9.69;100.00
54172;BME280;40076;52.354;4.970;2022-12-29T10:06:16;100021.59;;;9.72;100.00
54172;BME280;40076;52.354;4.970;2022-12-29T10:09:17;100033.31;;;9.76;100.00
54172;BME280;40076;52.354;4.970;2022-12-29T10:12:19;100039.16;;;9.78;100.00
54172;BME280;40076;52.354;4.970;2022-12-29T10:15:04;100039.28;;;9.82;100.00
54172;BME280;40076;52.354;4.970;2022-12-29T10:23:50;100053.81;;;9.89;100.00
54172;BME280;40076;52.354;4.970;2022-12-29T10:26:27;100055.84;;;9.92;100.00
54172;BME280;40076;52.354;4.970;2022-12-29T10:34:45;100074.97;;;9.99;100.00
54172;BME280;40076;52.354;4.970;2022-12-29T10:37:38;100083.53;;;10.01;100.00
54172;BME280;40076;52.354;4.970;2022-12-29T10:40:28;100082.41;;;10.02;100.00
54172;BME280;40076;52.354;4.970;2022-12-29T10:42:58;100089.41;;;10.03;100.00
54172;BME280;40076;52.354;4.970;2022-12-29T10:48:34;100106.94;;;10.10;100.00
54172;BME280;40076;52.354;4.970;2022-12-29T10:51:28;100101.22;;;10.11;100.00
54172;BME280;40076;52.354;4.970;2022-12-29T10:57:09;100100.56;;;10.14;100.00
54172;BME280;40076;52.354;4.970;2022-12-29T10:59:43;100110.72;;;10.17;100.00
54172;BME280;40076;52.354;4.970;2022-12-29T11:07:58;100122.56;;;10.25;100.00
54172;BME280;40076;52.354;4.970;2022-12-29T11:13:25;100123.47;;;10.29;100.00
54172;BME280;40076;52.354;4.970;2022-12-29T11:15:54;100137.09;;;10.32;100.00
54172;BME280;40076;52.354;4.970;2022-12-29T11:18:45;100135.63;;;10.35;100.00
54172;BME280;40076;52.354;4.970;2022-12-29T11:21:31;100145.31;;;10.36;100.00
54172;BME280;40076;52.354;4.970;2022-12-29T11:24:42;100154.66;;;10.38;100.00
54172;BME280;40076;52.354;4.970;2022-12-29T11:27:47;100144.22;;;10.37;100.00
54172;BME280;40076;52.354;4.970;2022-12-29T11:30:45;100159.16;;;10.34;100.00
54172;BME280;40076;52.354;4.970;2022-12-29T11:34:05;100168.22;;;10.30;100.00
54172;BME280;40076;52.354;4.970;2022-12-29T11:36:40;100165.22;;;10.31;100.00
54172;BME280;40076;52.354;4.970;2022-12-29T11:39:32;100174.09;;;10.32;100.00
54172;BME280;40076;52.354;4.970;2022-12-29T11:42:23;100169.81;;;10.31;100.00
54172;BME280;40076;52.354;4.970;2022-12-29T11:44:54;100174.88;;;10.32;100.00
54172;BME280;40076;52.354;4.970;2022-12-29T11:47:29;100181.56;;;10.35;100.00
54172;BME280;40076;52.354;4.970;2022-12-29T11:50:02;100183.56;;;10.38;100.00
54172;BME280;40076;52.354;4.970;2022-12-29T11:52:35;100204.84;;;10.39;100.00
54172;BME280;40076;52.354;4.970;2022-12-29T11:55:07;100193.72;;;10.41;100.00
54172;BME280;40076;52.354;4.970;2022-12-29T11:57:50;100200.38;;;10.43;100.00
54172;BME280;40076;52.354;4.970;2022-12-29T12:00:21;100201.97;;;10.44;100.00
54172;BME280;40076;52.354;4.970;2022-12-29T12:03:15;100206.69;;;10.48;100.00
54172;BME280;40076;52.354;4.970;2022-12-29T12:05:58;100214.31;;;10.45;100.00
54172;BME280;40076;52.354;4.970;2022-12-29T12:08:55;100200.06;;;10.45;100.00
54172;BME280;40076;52.354;4.970;2022-12-29T12:11:37;100212.06;;;10.48;100.00
54172;BME280;40076;52.354;4.970;2022-12-29T12:17:06;100212.88;;;10.48;100.00
54172;BME280;40076;52.354;4.970;2022-12-29T12:22:33;100218.28;;;10.48;100.00
54172;BME280;40076;52.354;4.970;2022-12-29T12:25:15;100222.88;;;10.48;100.00
54172;BME280;40076;52.354;4.970;2022-12-29T12:27:51;100205.09;;;10.47;100.00
54172;BME280;40076;52.354;4.970;2022-12-29T12:30:23;100215.56;;;10.48;100.00
54172;BME280;40076;52.354;4.970;2022-12-29T12:43:40;100227.81;;;10.45;100.00
54172;BME280;40076;52.354;4.970;2022-12-29T12:52:22;100239.88;;;10.48;100.00
54172;BME280;40076;52.354;4.970;2022-12-29T13:00:35;100239.41;;;10.46;100.00
54172;BME280;40076;52.354;4.970;2022-12-29T13:03:15;100241.78;;;10.48;100.00
54172;BME280;40076;52.354;4.970;2022-12-29T13:09:02;100241.78;;;10.48;100.00
54172;BME280;40076;52.354;4.970;2022-12-29T13:22:38;100258.00;;;10.48;100.00
54172;BME280;40076;52.354;4.970;2022-12-29T13:28:19;100263.41;;;10.48;100.00
54172;BME280;40076;52.354;4.970;2022-12-29T13:31:00;100264.97;;;10.49;100.00
54172;BME280;40076;52.354;4.970;2022-12-29T13:34:00;100268.00;;;10.47;100.00
54172;BME280;40076;52.354;4.970;2022-12-29T13:36:54;100272.28;;;10.48;100.00
54172;BME280;40076;52.354;4.970;2022-12-29T13:39:37;100269.59;;;10.48;100.00
54172;BME280;40076;52.354;4.970;2022-12-29T13:42:24;100268.81;;;10.48;100.00
54172;BME280;40076;52.354;4.970;2022-12-29T13:44:59;100268.81;;;10.48;100.00
54172;BME280;40076;52.354;4.970;2022-12-29T13:47:36;100269.59;;;10.48;100.00
54172;BME280;40076;52.354;4.970;2022-12-29T13:50:15;100259.25;;;10.50;100.00
54172;BME280;40076;52.354;4.970;2022-12-29T13:52:44;100258.13;;;10.51;100.00
54172;BME280;40076;52.354;4.970;2022-12-29T14:01:22;100260.03;;;10.51;100.00
54172;BME280;40076;52.354;4.970;2022-12-29T14:03:54;100264.34;;;10.52;100.00
54172;BME280;40076;52.354;4.970;2022-12-29T14:06:32;100254.97;;;10.49;100.00
54172;BME280;40076;52.354;4.970;2022-12-29T14:11:54;100269.28;;;10.50;100.00
54172;BME280;40076;52.354;4.970;2022-12-29T14:14:25;100264.97;;;10.49;100.00
54172;BME280;40076;52.354;4.970;2022-12-29T14:16:53;100268.47;;;10.49;100.00
54172;BME280;40076;52.354;4.970;2022-12-29T14:19:25;100257.66;;;10.49;100.00
54172;BME280;40076;52.354;4.970;2022-12-29T14:22:03;100258.47;;;10.50;100.00
54172;BME280;40076;52.354;4.970;2022-12-29T14:27:07;100272.75;;;10.50;100.00
54172;BME280;40076;52.354;4.970;2022-12-29T14:29:48;100280.06;;;10.50;100.00
54172;BME280;40076;52.354;4.970;2022-12-29T14:34:59;100280.06;;;10.50;100.00
54172;BME280;40076;52.354;4.970;2022-12-29T14:40:17;100274.66;;;10.50;100.00
54172;BME280;40076;52.354;4.970;2022-12-29T14:42:49;100276.13;;;10.47;100.00
54172;BME280;40076;52.354;4.970;2022-12-29T14:47:44;100284.09;;;10.43;100.00
54172;BME280;40076;52.354;4.970;2022-12-29T14:50:18;100283.31;;;10.43;100.00
54172;BME280;40076;52.354;4.970;2022-12-29T14:52:53;100272.03;;;10.41;100.00
54172;BME280;40076;52.354;4.970;2022-12-29T14:55:41;100283.50;;;10.38;100.00
54172;BME280;40076;52.354;4.970;2022-12-29T15:00:42;100288.47;;;10.36;100.00
54172;BME280;40076;52.354;4.970;2022-12-29T15:05:56;100285.28;;;10.34;100.00
54172;BME280;40076;52.354;4.970;2022-12-29T15:08:25;100278.50;;;10.28;100.00
54172;BME280;40076;52.354;4.970;2022-12-29T15:10:55;100289.31;;;10.28;100.00
54172;BME280;40076;52.354;4.970;2022-12-29T15:13:24;100286.16;;;10.26;100.00
54172;BME280;40076;52.354;4.970;2022-12-29T15:15:50;100282.97;;;10.24;100.00
54172;BME280;40076;52.354;4.970;2022-12-29T15:20:52;100281.75;;;10.21;100.00
54172;BME280;40076;52.354;4.970;2022-12-29T15:23:18;100293.97;;;10.19;100.00
54172;BME280;40076;52.354;4.970;2022-12-29T15:28:23;100315.06;;;10.17;100.00
54172;BME280;40076;52.354;4.970;2022-12-29T15:30:56;100312.69;;;10.15;100.00
54172;BME280;40076;52.354;4.970;2022-12-29T15:33:27;100320.69;;;10.12;100.00
54172;BME280;40076;52.354;4.970;2022-12-29T15:35:57;100321.16;;;10.14;100.00
54172;BME280;40076;52.354;4.970;2022-12-29T15:38:29;100324.66;;;10.14;100.00
54172;BME280;40076;52.354;4.970;2022-12-29T15:40:58;100333.19;;;10.16;100.00
54172;BME280;40076;52.354;4.970;2022-12-29T15:43:56;100332.38;;;10.16;100.00
54172;BME280;40076;52.354;4.970;2022-12-29T15:46:27;100330.47;;;10.16;100.00
54172;BME280;40076;52.354;4.970;2022-12-29T15:48:52;100337.34;;;10.14;100.00
54172;BME280;40076;52.354;4.970;2022-12-29T15:51:38;100338.47;;;10.13;100.00
54172;BME280;40076;52.354;4.970;2022-12-29T15:54:04;100335.75;;;10.13;100.00
54172;BME280;40076;52.354;4.970;2022-12-29T15:56:32;100329.09;;;10.10;100.00
54172;BME280;40076;52.354;4.970;2022-12-29T15:59:01;100328.78;;;10.12;100.00
54172;BME280;40076;52.354;4.970;2022-12-29T16:01:31;100341.16;;;10.13;100.00
54172;BME280;40076;52.354;4.970;2022-12-29T16:04:04;100347.69;;;10.12;100.00
54172;BME280;40076;52.354;4.970;2022-12-29T16:06:38;100348.78;;;10.11;100.00
54172;BME280;40076;52.354;4.970;2022-12-29T16:09:04;100355.31;;;10.10;100.00
54172;BME280;40076;52.354;4.970;2022-12-29T16:11:36;100351.53;;;10.02;100.00
54172;BME280;40076;52.354;4.970;2022-12-29T16:14:06;100355.03;;;10.02;100.00